Time;durP1;ratioP1;P1;durP2;ratioP2;P2;SDS_P1;SDS_P2;PMS_P1;PMS_P2;Temp;Humidity;BMP_temperature;BMP_pressure;BME280_temperature;BME280_humidity;BME280_pressure;Samples;Min_cycle;Max_cycle;Signal;HPM_P1;HPM_P2
2022/04/21 21:57:55;;;;;;;2.08;1.13;;;18.80;45.90;;;;;;6099624;23;1002604;-92
2022/04/21 22:00:56;;;;;;;1.90;1.20;;;18.70;46.20;;;;;;6056302;23;20033;-94
2022/04/21 22:03:22;;;;;;;2.20;1.15;;;18.70;46.00;;;;;;6110744;23;20018;-91
2022/04/21 22:05:48;;;;;;;2.97;1.50;;;18.70;46.30;;;;;;6109867;23;20014;-95
2022/04/21 22:08:14;;;;;;;4.10;1.50;;;18.40;46.10;;;;;;6111074;23;20006;-94
2022/04/21 22:10:40;;;;;;;2.85;1.60;;;18.70;46.20;;;;;;6062685;23;20053;-96
2022/04/21 22:13:07;;;;;;;4.15;1.80;;;18.70;46.30;;;;;;6063118;23;20037;-95
2022/04/21 22:15:36;;;;;;;3.10;1.52;;;18.80;46.40;;;;;;6061909;23;20502;-96
2022/04/21 22:18:02;;;;;;;2.95;1.55;;;18.70;46.20;;;;;;6086556;23;20010;-95
2022/04/21 22:20:28;;;;;;;3.97;1.80;;;18.70;46.50;;;;;;6061372;23;20014;-95
2022/04/21 22:22:54;;;;;;;4.00;2.10;;;18.70;46.60;;;;;;6110238;23;20010;-96
2022/04/21 22:25:21;;;;;;;4.43;1.88;;;18.70;46.30;;;;;;6082306;23;20635;-94
2022/04/21 22:27:47;;;;;;;4.30;2.17;;;18.60;46.50;;;;;;6085640;23;20006;-96
2022/04/21 22:30:13;;;;;;;4.78;1.67;;;18.60;46.60;;;;;;6059747;23;20469;-92
2022/04/21 22:32:45;;;;;;;4.55;1.88;;;18.60;46.40;;;;;;6089182;23;20010;-95
2022/04/21 22:35:11;;;;;;;3.45;2.10;;;18.60;46.40;;;;;;6088429;23;20084;-92
2022/04/21 22:37:38;;;;;;;4.55;1.88;;;18.60;46.60;;;;;;6108999;23;20101;-96
2022/04/21 22:40:08;;;;;;;4.43;1.63;;;18.50;46.60;;;;;;6083102;23;20545;-95
2022/04/21 22:42:35;;;;;;;6.03;1.42;;;18.50;46.30;;;;;;6059457;23;20014;-95
2022/04/21 22:45:01;;;;;;;3.58;1.80;;;18.50;46.40;;;;;;6062501;23;20017;-96
2022/04/21 22:47:29;;;;;;;3.22;1.70;;;18.50;46.50;;;;;;6064114;23;20009;-96
2022/04/21 22:49:55;;;;;;;3.40;1.60;;;18.50;46.40;;;;;;6063278;23;20094;-95
2022/04/21 22:52:22;;;;;;;5.15;1.70;;;18.40;46.50;;;;;;6062209;23;20006;-94
2022/04/21 22:54:48;;;;;;;3.53;1.77;;;18.40;46.50;;;;;;6084855;22;20528;-95
2022/04/21 22:57:14;;;;;;;3.60;1.42;;;18.40;46.80;;;;;;6087834;22;20109;-89
2022/04/21 22:59:40;;;;;;;3.53;1.60;;;18.40;46.80;;;;;;6066279;23;20077;-96
2022/04/21 23:02:07;;;;;;;4.10;2.05;;;18.50;46.80;;;;;;6064605;23;20013;-95
2022/04/21 23:04:33;;;;;;;3.80;1.70;;;18.40;46.70;;;;;;6063323;22;20024;-96
2022/04/21 23:06:59;;;;;;;3.22;2.00;;;18.40;46.70;;;;;;6085006;22;20073;-91
2022/04/21 23:14:56;;;;;;;2.38;1.35;;;18.30;46.80;;;;;;6088431;22;20025;-95
2022/04/21 23:17:22;;;;;;;6.60;2.40;;;18.20;46.60;;;;;;6060538;23;20368;-95
2022/04/21 23:19:50;;;;;;;5.50;2.75;;;18.10;46.70;;;;;;6064650;23;20025;-90
2022/04/21 23:22:18;;;;;;;3.05;1.40;;;18.10;46.70;;;;;;6062423;23;20010;-96
2022/04/21 23:24:46;;;;;;;3.97;1.63;;;18.10;46.70;;;;;;6085761;23;20014;-96
2022/04/21 23:27:13;;;;;;;4.13;1.60;;;18.00;46.80;;;;;;6085037;23;20006;-94
2022/04/21 23:29:40;;;;;;;3.63;1.67;;;18.00;46.80;;;;;;6060496;22;20666;-96
2022/04/21 23:32:06;;;;;;;2.88;1.50;;;18.00;46.80;;;;;;6087190;22;20147;-96
2022/04/21 23:34:32;;;;;;;5.85;1.92;;;18.00;46.80;;;;;;6061253;23;20558;-96
2022/04/21 23:36:58;;;;;;;10.45;3.20;;;18.00;46.80;;;;;;6064844;22;20052;-95
2022/04/21 23:39:24;;;;;;;3.97;1.90;;;18.00;47.00;;;;;;6087772;23;20018;-93
2022/04/21 23:41:52;;;;;;;8.13;3.20;;;18.00;46.90;;;;;;6064867;22;20024;-89
2022/04/21 23:44:18;;;;;;;3.83;2.00;;;17.90;46.90;;;;;;6065508;23;20018;-96
2022/04/21 23:46:44;;;;;;;4.05;2.17;;;17.90;46.90;;;;;;6063300;22;20926;-96
2022/04/21 23:49:14;;;;;;;5.47;2.08;;;17.90;46.90;;;;;;6089863;23;20076;-95
2022/04/21 23:51:47;;;;;;;3.72;2.20;;;17.90;46.80;;;;;;6106909;22;20033;-96
2022/04/21 23:54:19;;;;;;;5.80;2.08;;;18.00;46.80;;;;;;6092869;23;20345;-93
2022/04/21 23:56:48;;;;;;;4.38;1.90;;;18.00;46.80;;;;;;6092438;22;20037;-95
2022/04/21 23:59:14;;;;;;;5.57;2.20;;;17.90;46.70;;;;;;6253118;22;20019;-95
